createdAt,value
2022-08-19T00:00:31.802Z,92
2022-08-19T00:01:31.662Z,92
2022-08-19T00:02:31.683Z,92
2022-08-19T00:03:31.657Z,92
2022-08-19T00:04:31.741Z,92
2022-08-19T00:05:31.673Z,93
2022-08-19T00:06:31.715Z,93
2022-08-19T00:07:31.686Z,93
2022-08-19T00:08:31.666Z,93
2022-08-19T00:09:31.665Z,93
2022-08-19T00:10:31.719Z,93
2022-08-19T00:11:31.649Z,93
2022-08-19T00:12:31.673Z,93
2022-08-19T00:13:31.670Z,93
2022-08-19T00:14:31.658Z,93
2022-08-19T00:15:31.655Z,93
2022-08-19T00:16:31.667Z,93
2022-08-19T00:17:31.677Z,93
2022-08-19T00:18:31.654Z,93
2022-08-19T00:19:31.658Z,93
2022-08-19T00:20:31.685Z,93
2022-08-19T00:21:31.675Z,93
2022-08-19T00:22:31.650Z,94
2022-08-19T00:23:31.677Z,94
2022-08-19T00:24:31.643Z,94
2022-08-19T00:25:31.671Z,94
2022-08-19T00:26:31.673Z,94
2022-08-19T00:27:31.667Z,94
2022-08-19T00:28:31.660Z,94
2022-08-19T00:29:31.667Z,94
2022-08-19T00:30:31.652Z,94
2022-08-19T00:31:31.655Z,94
2022-08-19T00:32:31.654Z,94
2022-08-19T00:33:31.677Z,94
2022-08-19T00:34:31.670Z,94
2022-08-19T00:35:31.671Z,94
2022-08-19T00:36:31.691Z,94
2022-08-19T00:37:31.651Z,94
2022-08-19T00:38:37.353Z,94
2022-08-19T00:39:31.732Z,95
2022-08-19T00:40:31.649Z,94
2022-08-19T00:41:31.668Z,95
2022-08-19T00:42:31.664Z,95
2022-08-19T00:43:31.656Z,95
2022-08-19T00:44:31.644Z,95
2022-08-19T00:45:31.690Z,95
2022-08-19T00:46:31.672Z,95
2022-08-19T00:47:31.672Z,95
2022-08-19T00:48:31.660Z,95
2022-08-19T00:49:31.682Z,95
2022-08-19T00:50:31.670Z,95
2022-08-19T00:51:31.686Z,95
2022-08-19T00:52:31.658Z,95
2022-08-19T00:53:31.689Z,95
2022-08-19T00:54:31.713Z,95
2022-08-19T00:55:31.722Z,95
2022-08-19T00:56:31.635Z,95
2022-08-19T00:57:31.671Z,94
2022-08-19T00:58:31.679Z,94
2022-08-19T00:59:56.278Z,95
2022-08-19T01:00:31.709Z,94
2022-08-19T01:01:31.720Z,95
2022-08-19T01:02:31.694Z,95
2022-08-19T01:03:57.088Z,94
2022-08-19T01:04:31.872Z,95
2022-08-19T01:05:31.690Z,94
2022-08-19T01:06:31.691Z,94
2022-08-19T01:07:37.589Z,95
2022-08-19T01:08:31.687Z,94
2022-08-19T01:09:31.710Z,95
2022-08-19T01:10:36.098Z,94
2022-08-19T01:11:31.686Z,95
2022-08-19T01:12:31.677Z,95
2022-08-19T01:13:44.540Z,94
2022-08-19T01:14:31.706Z,95
2022-08-19T01:15:31.709Z,94
2022-08-19T01:16:31.683Z,94
2022-08-19T01:17:31.697Z,94
2022-08-19T01:18:31.686Z,94
2022-08-19T01:19:31.671Z,94
2022-08-19T01:20:31.660Z,94
2022-08-19T01:21:31.767Z,94
2022-08-19T01:22:33.732Z,94
2022-08-19T01:23:31.703Z,94
2022-08-19T01:24:31.720Z,94
2022-08-19T01:25:31.631Z,94
2022-08-19T01:26:31.681Z,94
2022-08-19T01:27:39.499Z,94
2022-08-19T01:28:33.966Z,94
2022-08-19T01:29:31.659Z,94
2022-08-19T01:30:31.794Z,94
2022-08-19T01:31:32.864Z,94
2022-08-19T01:32:33.683Z,94
2022-08-19T01:33:31.665Z,94
2022-08-19T01:34:31.692Z,94
2022-08-19T01:35:31.679Z,94
2022-08-19T01:36:31.742Z,94
2022-08-19T01:37:31.843Z,94
2022-08-19T01:38:31.672Z,94
2022-08-19T01:39:31.771Z,94
2022-08-19T01:40:31.881Z,94
2022-08-19T01:41:31.815Z,94
2022-08-19T01:42:31.873Z,94
2022-08-19T01:43:31.853Z,94
2022-08-19T01:44:31.855Z,94
2022-08-19T01:45:31.792Z,94
2022-08-19T01:46:31.873Z,94
2022-08-19T01:47:31.836Z,94
2022-08-19T01:48:31.825Z,94
2022-08-19T01:49:31.671Z,94
2022-08-19T01:50:31.707Z,94
2022-08-19T01:51:31.685Z,94
2022-08-19T01:52:31.691Z,94
2022-08-19T01:53:33.743Z,94
2022-08-19T01:54:31.805Z,94
2022-08-19T01:55:31.675Z,94
2022-08-19T01:56:31.890Z,94
2022-08-19T01:57:31.677Z,94
2022-08-19T01:58:31.734Z,94
2022-08-19T01:59:31.693Z,94
2022-08-19T02:00:31.693Z,94
2022-08-19T02:01:31.682Z,94
2022-08-19T02:02:31.699Z,94
2022-08-19T02:03:31.689Z,94
2022-08-19T02:04:31.680Z,94
2022-08-19T02:05:31.666Z,94
2022-08-19T02:06:31.679Z,94
2022-08-19T02:07:31.705Z,94
2022-08-19T02:08:31.711Z,94
2022-08-19T02:09:31.678Z,94
2022-08-19T02:10:31.694Z,94
2022-08-19T02:11:31.679Z,94
2022-08-19T02:12:31.672Z,94
2022-08-19T02:13:31.651Z,94
2022-08-19T02:14:31.682Z,94
2022-08-19T02:15:31.684Z,94
2022-08-19T02:16:31.700Z,94
2022-08-19T02:17:31.665Z,94
2022-08-19T02:18:31.673Z,94
2022-08-19T02:19:31.663Z,94
2022-08-19T02:20:31.692Z,94
2022-08-19T02:21:31.649Z,94
2022-08-19T02:22:31.775Z,94
2022-08-19T02:23:31.674Z,94
2022-08-19T02:24:31.766Z,94
2022-08-19T02:25:31.645Z,94
2022-08-19T02:26:31.693Z,94
2022-08-19T02:27:31.685Z,94
2022-08-19T02:28:31.667Z,94
2022-08-19T02:29:31.689Z,94
2022-08-19T02:30:31.670Z,94
2022-08-19T02:31:31.691Z,94
2022-08-19T02:32:31.668Z,94
2022-08-19T02:33:31.640Z,94
2022-08-19T02:34:31.662Z,94
2022-08-19T02:35:31.679Z,94
2022-08-19T02:36:31.702Z,94
2022-08-19T02:37:31.733Z,94
2022-08-19T02:38:31.707Z,94
2022-08-19T02:39:31.760Z,94
2022-08-19T02:40:31.695Z,94
2022-08-19T02:41:31.657Z,94
2022-08-19T02:42:31.688Z,94
2022-08-19T02:43:33.917Z,94
2022-08-19T02:44:32.065Z,94
2022-08-19T02:45:31.659Z,94
2022-08-19T02:46:31.679Z,94
2022-08-19T02:47:31.847Z,94
2022-08-19T02:48:31.670Z,94
2022-08-19T02:49:34.704Z,94
2022-08-19T02:50:31.669Z,94
2022-08-19T02:51:31.660Z,94
2022-08-19T02:52:31.654Z,94
2022-08-19T02:53:31.670Z,94
2022-08-19T02:54:31.692Z,94
2022-08-19T02:55:31.664Z,94
2022-08-19T02:56:31.697Z,94
2022-08-19T02:57:31.668Z,94
2022-08-19T02:58:31.707Z,94
2022-08-19T02:59:31.654Z,94
2022-08-19T03:00:31.679Z,94
2022-08-19T03:01:31.704Z,94
2022-08-19T03:02:31.872Z,94
2022-08-19T03:03:31.778Z,94
2022-08-19T03:04:31.692Z,94
2022-08-19T03:05:56.057Z,94
2022-08-19T03:06:31.743Z,94
2022-08-19T03:07:31.675Z,94
2022-08-19T03:08:31.689Z,94
2022-08-19T03:09:31.696Z,94
2022-08-19T03:10:31.707Z,94
2022-08-19T03:11:31.822Z,95
2022-08-19T03:12:31.790Z,95
2022-08-19T03:13:31.689Z,95
2022-08-19T03:14:31.832Z,95
2022-08-19T03:15:31.662Z,95
2022-08-19T03:16:33.219Z,95
2022-08-19T03:17:31.824Z,95
2022-08-19T03:18:31.872Z,95
2022-08-19T03:19:31.814Z,95
2022-08-19T03:20:31.832Z,95
2022-08-19T03:21:31.754Z,95
2022-08-19T03:22:31.701Z,95
2022-08-19T03:23:31.780Z,95
2022-08-19T03:24:31.860Z,95
2022-08-19T03:25:31.704Z,95
2022-08-19T03:26:31.793Z,95
2022-08-19T03:27:34.346Z,95
2022-08-19T03:28:31.755Z,95
2022-08-19T03:29:31.854Z,95
2022-08-19T03:30:31.663Z,95
2022-08-19T03:31:43.351Z,95
2022-08-19T03:32:33.095Z,95
2022-08-19T03:33:31.660Z,95
2022-08-19T03:34:31.700Z,95
2022-08-19T03:35:31.865Z,96
2022-08-19T03:36:31.654Z,95
2022-08-19T03:37:31.674Z,95
2022-08-19T03:38:31.666Z,96
2022-08-19T03:39:31.743Z,96
2022-08-19T03:40:31.827Z,96
2022-08-19T03:41:44.516Z,96
2022-08-19T03:42:48.691Z,96
2022-08-19T03:43:31.689Z,96
2022-08-19T03:44:31.704Z,96
2022-08-19T03:45:31.672Z,96
2022-08-19T03:46:31.705Z,96
2022-08-19T03:47:31.657Z,96
2022-08-19T03:48:31.645Z,96
2022-08-19T03:49:31.658Z,96
2022-08-19T03:50:31.650Z,96
2022-08-19T03:51:31.648Z,96
2022-08-19T03:52:31.657Z,96
2022-08-19T03:53:31.678Z,96
2022-08-19T03:54:31.658Z,96
2022-08-19T03:55:31.642Z,96
2022-08-19T03:56:31.670Z,96
2022-08-19T03:57:32.227Z,96
2022-08-19T03:58:31.663Z,96
2022-08-19T03:59:31.648Z,96
2022-08-19T04:00:31.693Z,96
2022-08-19T04:01:35.393Z,96
2022-08-19T04:02:31.676Z,96
2022-08-19T04:03:31.643Z,96
2022-08-19T04:04:31.893Z,96
2022-08-19T04:05:31.669Z,96
2022-08-19T04:06:31.744Z,96
2022-08-19T04:07:31.704Z,96
2022-08-19T04:08:31.663Z,96
2022-08-19T04:09:31.640Z,96
2022-08-19T04:10:31.643Z,96
2022-08-19T04:11:42.917Z,96
2022-08-19T04:12:31.803Z,96
2022-08-19T04:13:31.662Z,96
2022-08-19T04:14:31.674Z,96
2022-08-19T04:15:31.676Z,96
2022-08-19T04:16:35.318Z,96
2022-08-19T04:17:31.677Z,96
2022-08-19T04:18:36.269Z,96
2022-08-19T04:19:31.646Z,96
2022-08-19T04:20:31.714Z,96
2022-08-19T04:21:31.653Z,96
2022-08-19T04:22:31.790Z,96
2022-08-19T04:23:31.742Z,96
2022-08-19T04:24:31.655Z,96
2022-08-19T04:25:31.653Z,96
2022-08-19T04:26:31.661Z,96
2022-08-19T04:27:31.668Z,96
2022-08-19T04:28:31.701Z,96
2022-08-19T04:29:31.657Z,96
2022-08-19T04:30:31.675Z,96
2022-08-19T04:31:31.792Z,96
2022-08-19T04:32:31.667Z,96
2022-08-19T04:33:31.644Z,96
2022-08-19T04:34:31.737Z,96
2022-08-19T04:35:31.665Z,96
2022-08-19T04:36:31.710Z,96
2022-08-19T04:37:35.294Z,96
2022-08-19T04:38:31.663Z,96
2022-08-19T04:39:31.700Z,96
2022-08-19T04:40:31.672Z,96
2022-08-19T04:41:31.645Z,96
2022-08-19T04:42:31.661Z,96
2022-08-19T04:43:31.740Z,96
2022-08-19T04:44:33.315Z,96
2022-08-19T04:45:38.811Z,96
2022-08-19T04:46:40.077Z,96
2022-08-19T04:47:48.016Z,96
2022-08-19T04:48:31.709Z,96
2022-08-19T04:49:31.613Z,96
2022-08-19T04:50:31.677Z,96
2022-08-19T04:51:31.686Z,96
2022-08-19T04:52:31.668Z,96
2022-08-19T04:53:37.596Z,96
2022-08-19T04:54:38.794Z,96
2022-08-19T04:55:34.359Z,96
2022-08-19T04:56:31.648Z,96
2022-08-19T04:57:31.779Z,96
2022-08-19T04:58:31.640Z,96
2022-08-19T04:59:31.761Z,96
2022-08-19T05:00:31.662Z,96
2022-08-19T05:01:31.711Z,96
2022-08-19T05:02:31.670Z,96
2022-08-19T05:03:31.648Z,96
2022-08-19T05:04:31.674Z,96
2022-08-19T05:05:31.634Z,96
2022-08-19T05:06:31.650Z,96
2022-08-19T05:07:31.649Z,96
2022-08-19T05:08:31.814Z,95
2022-08-19T05:09:52.563Z,95
2022-08-19T05:10:31.700Z,95
2022-08-19T05:11:31.665Z,95
2022-08-19T05:12:31.676Z,95
2022-08-19T05:13:31.654Z,95
2022-08-19T05:14:31.702Z,95
2022-08-19T05:15:31.746Z,95
2022-08-19T05:16:31.680Z,95
2022-08-19T05:17:37.550Z,95
2022-08-19T05:18:31.700Z,95
2022-08-19T05:19:31.707Z,94
2022-08-19T05:20:31.854Z,94
2022-08-19T05:21:31.607Z,94
2022-08-19T05:22:31.646Z,94
2022-08-19T05:23:31.620Z,94
2022-08-19T05:24:31.740Z,94
2022-08-19T05:25:31.681Z,94
2022-08-19T05:26:31.649Z,94
2022-08-19T05:27:31.663Z,94
2022-08-19T05:28:31.671Z,94
2022-08-19T05:29:33.488Z,93
2022-08-19T05:30:46.561Z,93
2022-08-19T05:31:31.668Z,93
2022-08-19T05:32:31.666Z,92
2022-08-19T05:33:31.639Z,92
2022-08-19T05:34:31.670Z,92
2022-08-19T05:35:34.729Z,91
2022-08-19T05:36:31.648Z,91
2022-08-19T05:37:31.641Z,91
2022-08-19T05:38:31.622Z,91
2022-08-19T05:39:31.878Z,91
2022-08-19T05:40:31.647Z,91
2022-08-19T05:41:31.810Z,89
2022-08-19T05:42:31.643Z,89
2022-08-19T05:43:31.667Z,88
2022-08-19T05:44:31.667Z,88
2022-08-19T05:45:31.660Z,89
2022-08-19T05:46:31.682Z,88
2022-08-19T05:47:31.770Z,88
2022-08-19T05:48:31.655Z,87
2022-08-19T05:49:31.674Z,88
2022-08-19T05:50:31.804Z,87
2022-08-19T05:51:31.813Z,85
2022-08-19T05:52:31.680Z,84
2022-08-19T05:53:31.666Z,83
2022-08-19T05:54:31.668Z,82
2022-08-19T05:55:31.666Z,82
2022-08-19T05:56:31.645Z,82
2022-08-19T05:57:31.670Z,81
2022-08-19T05:58:31.628Z,81
2022-08-19T05:59:31.658Z,81
2022-08-19T06:00:31.768Z,80
2022-08-19T06:01:31.676Z,81
2022-08-19T06:02:31.903Z,80
2022-08-19T06:03:31.673Z,80
2022-08-19T06:04:31.658Z,79
2022-08-19T06:05:31.659Z,79
2022-08-19T06:06:31.656Z,79
2022-08-19T06:07:31.674Z,79
2022-08-19T06:08:34.372Z,78
2022-08-19T06:09:31.671Z,79
2022-08-19T06:10:31.696Z,79
2022-08-19T06:11:31.661Z,79
2022-08-19T06:12:31.681Z,77
2022-08-19T06:13:35.180Z,76
2022-08-19T06:14:31.653Z,76
2022-08-19T06:15:31.660Z,76
2022-08-19T06:16:31.677Z,77
2022-08-19T06:17:32.411Z,77
2022-08-19T06:18:31.648Z,77
2022-08-19T06:19:31.642Z,78
2022-08-19T06:20:54.489Z,79
2022-08-19T06:21:31.722Z,79
2022-08-19T06:22:31.677Z,80
2022-08-19T06:23:31.649Z,80
2022-08-19T06:24:31.676Z,80
2022-08-19T06:25:31.676Z,81
2022-08-19T06:26:31.638Z,81
2022-08-19T06:27:31.730Z,81
2022-08-19T06:28:31.671Z,80
2022-08-19T06:29:31.673Z,80
2022-08-19T06:30:31.634Z,80
2022-08-19T06:31:31.637Z,80
2022-08-19T06:32:31.683Z,80
2022-08-19T06:33:31.656Z,80
2022-08-19T06:34:31.634Z,79
2022-08-19T06:35:31.807Z,79
2022-08-19T06:36:31.661Z,80
2022-08-19T06:37:31.669Z,80
2022-08-19T06:38:31.643Z,80
2022-08-19T06:39:31.737Z,79
2022-08-19T06:40:31.765Z,79
2022-08-19T06:41:31.668Z,79
2022-08-19T06:42:31.644Z,79
2022-08-19T06:43:31.671Z,79
2022-08-19T06:44:31.849Z,79
2022-08-19T06:45:34.599Z,79
2022-08-19T06:46:31.637Z,79
2022-08-19T06:47:31.656Z,79
2022-08-19T06:48:31.644Z,79
2022-08-19T06:49:31.662Z,79
2022-08-19T06:50:31.647Z,79
2022-08-19T06:52:31.631Z,78
2022-08-19T06:53:31.628Z,79
2022-08-19T06:54:31.634Z,79
2022-08-19T06:55:31.672Z,79
2022-08-19T06:56:31.633Z,78
2022-08-19T06:57:31.653Z,78
2022-08-19T06:58:31.631Z,78
2022-08-19T06:59:31.644Z,78
2022-08-19T07:01:31.659Z,77
2022-08-19T07:02:31.617Z,77
2022-08-19T07:03:31.650Z,77
2022-08-19T07:04:31.682Z,77
2022-08-19T07:05:31.687Z,77
2022-08-19T07:06:44.141Z,77
2022-08-19T07:07:31.712Z,76
2022-08-19T07:08:31.749Z,76
2022-08-19T07:09:31.653Z,76
2022-08-19T07:10:31.644Z,75
2022-08-19T07:11:35.093Z,76
2022-08-19T07:12:31.632Z,76
2022-08-19T07:13:31.662Z,76
2022-08-19T07:14:31.612Z,75
2022-08-19T07:15:31.661Z,75
2022-08-19T07:16:31.621Z,75
2022-08-19T07:17:31.650Z,75
2022-08-19T07:18:31.628Z,75
2022-08-19T07:19:31.685Z,75
2022-08-19T07:20:31.646Z,74
2022-08-19T07:21:31.671Z,74
2022-08-19T07:22:31.718Z,74
2022-08-19T07:23:31.713Z,75
2022-08-19T07:24:33.536Z,74
2022-08-19T07:25:32.339Z,74
2022-08-19T07:26:31.632Z,73
2022-08-19T07:27:33.695Z,73
2022-08-19T07:28:31.650Z,72
2022-08-19T07:29:31.645Z,73
2022-08-19T07:30:31.689Z,72
2022-08-19T07:31:31.661Z,73
2022-08-19T07:32:31.637Z,73
2022-08-19T07:33:31.665Z,72
2022-08-19T07:34:31.653Z,72
2022-08-19T07:35:31.627Z,72
2022-08-19T07:36:31.644Z,72
2022-08-19T07:37:33.315Z,72
2022-08-19T07:38:31.643Z,72
2022-08-19T07:39:31.696Z,71
2022-08-19T07:40:31.693Z,70
2022-08-19T07:41:31.725Z,70
2022-08-19T07:42:31.622Z,70
2022-08-19T07:43:34.918Z,69
2022-08-19T07:44:31.709Z,68
2022-08-19T07:45:31.692Z,68
2022-08-19T07:46:31.641Z,67
2022-08-19T07:47:47.468Z,67
2022-08-19T07:48:31.741Z,66
2022-08-19T07:49:31.656Z,65
2022-08-19T07:50:31.601Z,65
2022-08-19T07:51:36.312Z,65
2022-08-19T07:52:31.658Z,65
2022-08-19T07:53:31.648Z,66
2022-08-19T07:54:31.645Z,65
2022-08-19T07:55:41.654Z,65
2022-08-19T07:56:31.652Z,65
2022-08-19T07:57:32.725Z,65
2022-08-19T07:58:32.553Z,65
2022-08-19T07:59:36.519Z,65
2022-08-19T08:00:40.568Z,65
2022-08-19T08:01:44.587Z,64
2022-08-19T08:02:48.640Z,64
2022-08-19T08:03:52.533Z,64
2022-08-19T08:04:56.523Z,65
2022-08-19T08:06:00.520Z,66
2022-08-19T08:07:04.809Z,65
2022-08-19T08:08:08.524Z,64
2022-08-19T08:09:12.655Z,64
2022-08-19T08:10:21.363Z,65
2022-08-19T08:11:20.865Z,64
2022-08-19T08:12:34.090Z,64
2022-08-19T08:13:28.927Z,64
2022-08-19T08:14:35.254Z,64
2022-08-19T08:15:31.658Z,64
2022-08-19T08:16:31.659Z,64
2022-08-19T08:17:48.644Z,63
2022-08-19T08:18:31.691Z,64
2022-08-19T08:19:31.650Z,64
2022-08-19T08:20:31.638Z,64
2022-08-19T08:21:31.749Z,63
2022-08-19T08:22:31.651Z,62
2022-08-19T08:23:31.583Z,62
2022-08-19T08:24:31.740Z,62
2022-08-19T08:25:32.325Z,61
2022-08-19T08:26:31.647Z,62
2022-08-19T08:27:31.627Z,61
2022-08-19T08:28:31.655Z,61
2022-08-19T08:29:34.533Z,61
2022-08-19T08:30:32.857Z,61
2022-08-19T08:31:31.634Z,61
2022-08-19T08:32:31.660Z,61
2022-08-19T08:33:34.235Z,60
2022-08-19T08:34:31.648Z,60
2022-08-19T08:35:31.625Z,60
2022-08-19T08:36:31.650Z,60
2022-08-19T08:37:31.624Z,61
2022-08-19T08:38:36.939Z,61
2022-08-19T08:39:31.683Z,61
2022-08-19T08:40:31.641Z,61
2022-08-19T08:41:31.635Z,61
2022-08-19T08:42:31.645Z,61
2022-08-19T08:43:32.389Z,60
2022-08-19T08:44:31.641Z,60
2022-08-19T08:45:32.927Z,59
2022-08-19T08:46:32.613Z,59
2022-08-19T08:47:31.625Z,59
2022-08-19T08:48:31.634Z,59
2022-08-19T08:49:31.768Z,60
2022-08-19T08:50:31.631Z,59
2022-08-19T08:51:34.967Z,60
2022-08-19T08:52:32.031Z,60
2022-08-19T08:53:34.422Z,60
2022-08-19T08:54:31.624Z,60
2022-08-19T08:55:36.723Z,60
2022-08-19T08:57:38.903Z,60
2022-08-19T08:58:31.641Z,60
2022-08-19T08:59:31.618Z,61
2022-08-19T09:00:31.645Z,61
2022-08-19T09:01:31.713Z,60
2022-08-19T09:02:31.657Z,60
2022-08-19T09:03:31.835Z,60
2022-08-19T09:04:31.639Z,60
2022-08-19T09:05:41.433Z,60
2022-08-19T09:06:31.690Z,60
2022-08-19T09:07:35.442Z,59
2022-08-19T09:08:31.648Z,59
2022-08-19T09:09:31.662Z,58
2022-08-19T09:10:31.626Z,58
2022-08-19T09:11:42.527Z,59
2022-08-19T09:12:31.652Z,59
2022-08-19T09:13:34.713Z,58
2022-08-19T09:14:49.671Z,58
2022-08-19T09:15:33.508Z,58
2022-08-19T09:16:31.655Z,57
2022-08-19T09:17:32.175Z,57
2022-08-19T09:18:31.693Z,57
2022-08-19T09:19:31.612Z,57
2022-08-19T09:20:31.634Z,56
2022-08-19T09:21:33.320Z,56
2022-08-19T09:22:31.633Z,55
2022-08-19T09:23:31.634Z,55
2022-08-19T09:24:31.633Z,56
2022-08-19T09:25:31.620Z,56
2022-08-19T09:26:47.472Z,56
2022-08-19T09:27:41.706Z,56
2022-08-19T09:28:31.630Z,57
2022-08-19T09:29:31.616Z,56
2022-08-19T09:30:31.637Z,56
2022-08-19T09:31:31.687Z,56
2022-08-19T09:32:31.640Z,57
2022-08-19T09:33:31.614Z,57
2022-08-19T09:34:31.713Z,57
2022-08-19T09:35:31.616Z,57
2022-08-19T09:36:35.304Z,56
2022-08-19T09:37:31.626Z,56
2022-08-19T09:38:31.639Z,56
2022-08-19T09:39:35.780Z,57
2022-08-19T09:40:35.461Z,57
2022-08-19T09:41:31.614Z,57
2022-08-19T09:42:35.475Z,57
2022-08-19T09:43:33.771Z,56
2022-08-19T09:44:31.630Z,57
2022-08-19T09:45:31.612Z,57
2022-08-19T09:46:31.650Z,57
2022-08-19T09:47:31.787Z,57
2022-08-19T09:48:31.633Z,56
2022-08-19T09:49:31.615Z,56
2022-08-19T09:50:31.824Z,56
2022-08-19T09:51:31.634Z,54
2022-08-19T09:52:32.598Z,53
2022-08-19T09:53:31.658Z,54
2022-08-19T09:54:31.620Z,55
2022-08-19T09:55:32.754Z,55
2022-08-19T09:56:31.645Z,56
2022-08-19T09:57:31.643Z,55
2022-08-19T09:58:31.635Z,55
2022-08-19T09:59:31.659Z,55
2022-08-19T10:00:31.635Z,55
2022-08-19T10:01:31.828Z,55
2022-08-19T10:02:31.643Z,55
2022-08-19T10:03:31.638Z,56
2022-08-19T10:04:31.631Z,56
2022-08-19T10:05:31.622Z,56
2022-08-19T10:06:45.550Z,55
2022-08-19T10:07:36.544Z,55
2022-08-19T10:08:31.634Z,54
2022-08-19T10:09:34.305Z,54
2022-08-19T10:10:31.603Z,55
2022-08-19T10:11:36.389Z,55
2022-08-19T10:12:31.640Z,55
2022-08-19T10:13:31.627Z,54
2022-08-19T10:14:31.643Z,52
2022-08-19T10:15:31.645Z,51
2022-08-19T10:16:31.672Z,52
2022-08-19T10:17:33.394Z,52
2022-08-19T10:18:31.712Z,51
2022-08-19T10:19:31.614Z,51
2022-08-19T10:20:31.648Z,52
2022-08-19T10:21:32.135Z,52
2022-08-19T10:22:31.627Z,52
2022-08-19T10:23:33.718Z,51
2022-08-19T10:24:31.602Z,50
2022-08-19T10:25:31.660Z,51
2022-08-19T10:26:31.612Z,51
2022-08-19T10:27:32.110Z,50
2022-08-19T10:28:31.621Z,51
2022-08-19T10:29:33.464Z,51
2022-08-19T10:30:31.626Z,51
2022-08-19T10:32:00.688Z,51
2022-08-19T10:32:34.100Z,51
2022-08-19T10:33:38.967Z,51
2022-08-19T10:34:31.697Z,51
2022-08-19T10:35:31.642Z,51
2022-08-19T10:36:31.632Z,51
2022-08-19T10:37:32.542Z,51
2022-08-19T10:38:33.026Z,51
2022-08-19T10:39:32.591Z,49
2022-08-19T10:40:31.810Z,49
2022-08-19T10:41:31.617Z,50
2022-08-19T10:42:31.598Z,50
2022-08-19T10:43:31.636Z,50
2022-08-19T10:44:32.650Z,50
2022-08-19T10:45:31.746Z,49
2022-08-19T10:46:31.626Z,48
2022-08-19T10:47:31.961Z,48
2022-08-19T10:48:31.600Z,49
2022-08-19T10:49:31.629Z,50
2022-08-19T10:50:31.616Z,50
2022-08-19T10:51:31.651Z,50
2022-08-19T10:52:32.553Z,50
2022-08-19T10:53:31.615Z,48
2022-08-19T10:54:33.475Z,47
2022-08-19T10:55:31.635Z,48
2022-08-19T10:56:31.627Z,47
2022-08-19T10:57:52.325Z,47
2022-08-19T10:58:31.673Z,46
2022-08-19T10:59:36.008Z,46
2022-08-19T11:00:31.914Z,45
2022-08-19T11:01:31.694Z,46
2022-08-19T11:02:31.640Z,45
2022-08-19T11:03:31.651Z,44
2022-08-19T11:04:31.605Z,44
2022-08-19T11:05:31.639Z,45
2022-08-19T11:06:31.624Z,45
2022-08-19T11:07:31.634Z,45
2022-08-19T11:08:31.706Z,46
2022-08-19T11:09:34.201Z,44
2022-08-19T11:10:31.610Z,45
2022-08-19T11:11:31.647Z,45
2022-08-19T11:12:31.632Z,45
2022-08-19T11:13:31.640Z,44
2022-08-19T11:14:32.207Z,45
2022-08-19T11:15:31.629Z,44
2022-08-19T11:16:31.630Z,43
2022-08-19T11:17:31.646Z,44
2022-08-19T11:18:31.625Z,43
2022-08-19T11:19:31.644Z,43
2022-08-19T11:20:31.611Z,44
2022-08-19T11:21:31.626Z,43
2022-08-19T11:22:35.339Z,43
2022-08-19T11:23:31.634Z,42
2022-08-19T11:24:31.584Z,42
2022-08-19T11:25:31.598Z,43
2022-08-19T11:26:31.610Z,42
2022-08-19T11:27:31.612Z,42
2022-08-19T11:28:31.635Z,43
2022-08-19T11:29:31.628Z,43
2022-08-19T11:30:31.643Z,43
2022-08-19T11:31:31.591Z,43
2022-08-19T11:32:31.632Z,43
2022-08-19T11:33:31.751Z,43
2022-08-19T11:34:31.654Z,42
2022-08-19T11:35:31.589Z,42
2022-08-19T11:36:31.603Z,42
2022-08-19T11:37:31.636Z,42
2022-08-19T11:38:31.615Z,42
2022-08-19T11:39:31.646Z,42
2022-08-19T11:40:31.628Z,41
2022-08-19T11:41:31.638Z,41
2022-08-19T11:42:31.640Z,42
2022-08-19T11:43:36.791Z,42
2022-08-19T11:44:31.635Z,42
2022-08-19T11:45:31.638Z,43
2022-08-19T11:46:31.622Z,42
2022-08-19T11:47:31.589Z,42
2022-08-19T11:48:31.681Z,42
2022-08-19T11:49:31.619Z,42
2022-08-19T11:50:31.617Z,41
2022-08-19T11:51:31.582Z,41
2022-08-19T11:52:31.665Z,42
2022-08-19T11:53:31.623Z,43
2022-08-19T11:54:31.656Z,42
2022-08-19T11:55:31.607Z,42
2022-08-19T11:56:31.626Z,41
2022-08-19T11:57:31.976Z,41
2022-08-19T11:58:31.623Z,43
2022-08-19T11:59:31.589Z,43
2022-08-19T12:00:31.782Z,44
2022-08-19T12:01:31.681Z,42
2022-08-19T12:02:31.650Z,42
2022-08-19T12:03:31.675Z,41
2022-08-19T12:04:31.612Z,41
2022-08-19T12:05:31.613Z,41
2022-08-19T12:06:31.611Z,40
2022-08-19T12:07:31.620Z,41
2022-08-19T12:08:31.622Z,41
2022-08-19T12:09:31.613Z,41
2022-08-19T12:10:31.620Z,41
2022-08-19T12:11:34.542Z,41
2022-08-19T12:12:31.755Z,41
2022-08-19T12:13:31.632Z,42
2022-08-19T12:14:31.616Z,42
2022-08-19T12:15:36.791Z,41
2022-08-19T12:16:31.626Z,42
2022-08-19T12:17:31.633Z,43
2022-08-19T12:18:31.621Z,43
2022-08-19T12:19:31.584Z,43
2022-08-19T12:20:31.631Z,42
2022-08-19T12:21:31.666Z,42
2022-08-19T12:22:31.621Z,42
2022-08-19T12:23:31.605Z,41
2022-08-19T12:24:31.590Z,41
2022-08-19T12:25:31.638Z,41
2022-08-19T12:26:31.570Z,40
2022-08-19T12:27:35.671Z,41
2022-08-19T12:28:31.626Z,41
2022-08-19T12:29:31.647Z,41
2022-08-19T12:30:31.595Z,41
2022-08-19T12:31:31.634Z,43
2022-08-19T12:32:31.626Z,44
2022-08-19T12:33:31.628Z,44
2022-08-19T12:34:31.576Z,43
2022-08-19T12:35:31.716Z,43
2022-08-19T12:36:31.614Z,43
2022-08-19T12:37:31.642Z,43
2022-08-19T12:38:31.603Z,42
2022-08-19T12:39:31.686Z,42
2022-08-19T12:40:31.599Z,43
2022-08-19T12:41:31.609Z,43
2022-08-19T12:42:31.722Z,44
2022-08-19T12:43:31.604Z,44
2022-08-19T12:44:32.944Z,43
2022-08-19T12:45:31.659Z,43
2022-08-19T12:46:31.611Z,43
2022-08-19T12:47:31.609Z,44
2022-08-19T12:48:34.374Z,45
2022-08-19T12:49:52.603Z,43
2022-08-19T12:50:31.661Z,44
2022-08-19T12:51:31.612Z,43
2022-08-19T12:52:31.660Z,44
2022-08-19T12:53:31.654Z,43
2022-08-19T12:54:31.592Z,42
2022-08-19T12:55:31.605Z,42
2022-08-19T12:56:31.627Z,42
2022-08-19T12:57:33.160Z,42
2022-08-19T12:58:31.592Z,42
2022-08-19T12:59:31.747Z,43
2022-08-19T13:00:31.609Z,43
2022-08-19T13:01:31.612Z,43
2022-08-19T13:02:31.594Z,43
2022-08-19T13:03:31.673Z,43
2022-08-19T13:04:31.671Z,43
2022-08-19T13:05:31.622Z,42
2022-08-19T13:06:31.586Z,42
2022-08-19T13:07:31.644Z,43
2022-08-19T13:08:31.774Z,42
2022-08-19T13:09:31.661Z,43
2022-08-19T13:10:31.647Z,43
2022-08-19T13:11:31.705Z,43
2022-08-19T13:12:31.618Z,43
2022-08-19T13:13:31.619Z,44
2022-08-19T13:14:31.621Z,44
2022-08-19T13:15:31.601Z,44
2022-08-19T13:16:31.613Z,44
2022-08-19T13:17:31.623Z,45
2022-08-19T13:18:31.610Z,45
2022-08-19T13:19:31.678Z,44
2022-08-19T13:20:31.613Z,44
2022-08-19T13:21:31.618Z,45
2022-08-19T13:22:31.625Z,45
2022-08-19T13:23:31.633Z,45
2022-08-19T13:24:33.681Z,46
2022-08-19T13:25:31.634Z,46
2022-08-19T13:26:31.668Z,46
2022-08-19T13:27:31.628Z,46
2022-08-19T13:28:31.602Z,46
2022-08-19T13:29:31.844Z,46
2022-08-19T13:30:31.644Z,47
2022-08-19T13:31:31.601Z,46
2022-08-19T13:32:31.607Z,47
2022-08-19T13:33:31.613Z,47
2022-08-19T13:34:31.610Z,48
2022-08-19T13:35:31.628Z,48
2022-08-19T13:36:31.609Z,49
2022-08-19T13:37:31.626Z,49
2022-08-19T13:38:31.612Z,49
2022-08-19T13:39:31.653Z,49
2022-08-19T13:40:31.604Z,49
2022-08-19T13:41:31.620Z,49
2022-08-19T13:42:31.619Z,50
2022-08-19T13:43:31.665Z,50
2022-08-19T13:44:31.593Z,50
2022-08-19T13:45:31.611Z,50
2022-08-19T13:46:31.630Z,49
2022-08-19T13:47:31.595Z,50
2022-08-19T13:48:31.590Z,50
2022-08-19T13:49:31.587Z,51
2022-08-19T13:50:31.607Z,51
2022-08-19T13:51:31.626Z,50
2022-08-19T13:52:31.621Z,50
2022-08-19T13:53:31.613Z,50
2022-08-19T13:54:31.802Z,50
2022-08-19T13:55:31.597Z,50
2022-08-19T13:56:31.624Z,50
2022-08-19T13:57:31.597Z,50
2022-08-19T13:58:31.597Z,50
2022-08-19T13:59:31.589Z,50
2022-08-19T14:00:31.632Z,50
2022-08-19T14:01:31.609Z,50
2022-08-19T14:02:31.709Z,50
2022-08-19T14:03:31.613Z,50
2022-08-19T14:04:31.577Z,49
2022-08-19T14:05:31.641Z,50
2022-08-19T14:06:31.593Z,50
2022-08-19T14:07:31.599Z,50
2022-08-19T14:08:31.586Z,50
2022-08-19T14:09:31.643Z,50
2022-08-19T14:10:31.689Z,50
2022-08-19T14:11:31.608Z,50
2022-08-19T14:12:31.600Z,51
2022-08-19T14:13:31.624Z,51
2022-08-19T14:14:31.626Z,51
2022-08-19T14:15:31.644Z,50
2022-08-19T14:16:31.589Z,50
2022-08-19T14:17:31.652Z,50
2022-08-19T14:18:31.617Z,50
2022-08-19T14:19:31.652Z,49